Airfield :
LOGIN :

Register | Disclaimer

   EN    FR    IT 

 










Legend :    VFR   Marginal VFR   IFR   Intensive IFR   Very Intensive IFR
Visi :
Ceiling :
>= 8 km
>= 3000ft
5 to 8 km
1000 to 3000 ft
1500m to 5 km
500 to 1000 ft
800 to 1500m
200 to 500 ft
< 800m
< 200 ft
Symbols :   Thunderstorms  Fog  Heavy snow  Heavy precipitations  Wind > 20 kt
SIGMETs :     Misc.  Thunderstorms  Icing  Turbulence  Mountain Waves  Volcanic Ashes






- Airport Elevation : 1558 ft
- IATA code : IOA


LGIO - Ioannina

CURRENT METAR :
  • 282220Z AUTO VRB02KT //// // ////// 01/00 Q1018 RE//

EXPIRED METARs :
  • 282150Z AUTO 00000KT //// // ////// 02/01 Q1019 RE//
  • 282120Z AUTO 00000KT //// // ////// 04/02 Q1019 RE//
  • 282050Z AUTO 00000KT //// // ////// 02/01 Q1019 RE//
  • 282020Z AUTO 00000KT //// // ////// 03/02 Q1019 RE//
  • 281950Z AUTO VRB01KT //// // ////// 04/02 Q1019 RE//

TAF TAF LGIO
Valid from the 28 at 21:00 until the 29 at 06:00 UTC


282000Z 2821/2906 VRB03KT 9999 FEW025
BECMG 2821/2824 5000 BR SCT005 BKN020
TEMPO 2900/2906 0500 FG BKN005 BKN020



MET'MAP, your aeronautical weather chart ! - Copyright ORBIFLY December 2007 - Disclaimer

ORBIFLY MET'MAP TEAM :

Programming & Development : Alexandra Zaïnal
Concept & original design : Baudouin d'Aumeries
Assistance for programming : Marc-Olivier Méhu
Technical & hardware support : Manuel Goepfert

Contact : metmap@orbifly.com




SOURCES & CREDITS :

   NOAA